Eden, Vermont
Current Conditions -  °F | °C
As of 7:54 AM on Saturday 25 Oct 2014 (Local Time) from KMVL Reporting Station
Broken Clouds Broken Clouds  
Wind Chill: 32°   Ceiling: 200
Heat Index: 32°   Visibility: 7mi
Dew Point: 31°   Wind: 0mph
Humidity: 96%   Direction: NA
Pressure: 29.77"   Gusts: NA
Location:  44.71°N, 72.55°W
Report Text: KMVL 251154Z AUTO 00000KT 7SM BKN002 00/M01 A2977 RMK AO2 SLP089 T00001006 10011 21006 58001
Loading
Personal Weather Stations






























Interactive Weather Map New forecast layout! Learn more

10-Day Weather Forecast

Advertisements
Track Severe Weather on mobile